createdAt,value
2018-04-24T00:01:22.028Z,16.20
2018-04-24T00:03:51.077Z,16.10
2018-04-24T00:06:20.167Z,16.00
2018-04-24T00:08:49.204Z,16.00
2018-04-24T00:11:18.240Z,16.00
2018-04-24T00:13:47.339Z,15.90
2018-04-24T00:16:16.369Z,16.00
2018-04-24T00:18:45.390Z,16.00
2018-04-24T00:21:15.424Z,16.00
2018-04-24T00:23:44.414Z,16.00
2018-04-24T00:26:13.482Z,16.10
2018-04-24T00:28:42.514Z,16.00
2018-04-24T00:31:11.534Z,15.90
2018-04-24T00:33:40.586Z,15.80
2018-04-24T00:36:09.641Z,15.80
2018-04-24T00:38:39.438Z,15.90
2018-04-24T00:41:08.519Z,15.80
2018-04-24T00:43:37.537Z,15.90
2018-04-24T00:46:07.344Z,16.00
2018-04-24T00:48:36.424Z,15.90
2018-04-24T00:51:05.458Z,16.00
2018-04-24T00:53:40.397Z,16.10
2018-04-24T00:56:09.434Z,16.10
2018-04-24T00:58:38.506Z,16.00
2018-04-24T01:01:07.546Z,16.10
2018-04-24T01:03:36.611Z,16.00
2018-04-24T01:06:05.621Z,15.90
2018-04-24T01:08:34.674Z,15.90
2018-04-24T01:11:03.710Z,15.80
2018-04-24T01:13:32.760Z,15.70
2018-04-24T01:16:01.773Z,15.70
2018-04-24T01:18:30.863Z,15.70
2018-04-24T01:20:59.891Z,15.80
2018-04-24T01:23:28.919Z,15.80
2018-04-24T01:25:58.249Z,15.80
2018-04-24T01:28:27.278Z,15.80
2018-04-24T01:30:56.301Z,15.80
2018-04-24T01:33:25.357Z,15.80
2018-04-24T01:35:54.410Z,15.80
2018-04-24T01:38:23.435Z,15.80
2018-04-24T01:40:52.485Z,15.80
2018-04-24T01:43:21.526Z,15.80
2018-04-24T01:45:50.571Z,15.80
2018-04-24T01:48:19.597Z,15.80
2018-04-24T01:50:48.684Z,15.80
2018-04-24T01:53:18.622Z,15.80
2018-04-24T01:55:49.618Z,15.80
2018-04-24T01:58:19.747Z,15.70
2018-04-24T02:00:48.777Z,15.60
2018-04-24T02:03:17.849Z,15.60
2018-04-24T02:05:46.879Z,15.50
2018-04-24T02:08:16.728Z,15.20
2018-04-24T02:10:45.748Z,15.10
2018-04-24T02:13:14.831Z,15.10
2018-04-24T02:15:43.854Z,14.90
2018-04-24T02:18:12.877Z,14.80
2018-04-24T02:20:41.955Z,14.70
2018-04-24T02:23:10.978Z,14.60
2018-04-24T02:25:39.992Z,14.40
2018-04-24T02:28:09.050Z,14.40
2018-04-24T02:30:38.091Z,14.40
2018-04-24T02:33:07.141Z,14.30
2018-04-24T02:35:36.178Z,14.30
2018-04-24T02:38:05.242Z,14.20
2018-04-24T02:40:34.291Z,14.20
2018-04-24T02:43:03.371Z,14.20
2018-04-24T02:45:32.395Z,14.10
2018-04-24T02:48:02.187Z,14.10
2018-04-24T02:50:31.279Z,14.00
2018-04-24T02:53:00.333Z,14.10
2018-04-24T02:55:29.371Z,14.00
2018-04-24T02:57:58.461Z,14.00
2018-04-24T03:00:27.521Z,13.90
2018-04-24T03:02:56.563Z,14.00
2018-04-24T03:05:26.386Z,13.90
2018-04-24T03:07:56.178Z,13.90
2018-04-24T03:10:25.243Z,13.80
2018-04-24T03:12:54.287Z,13.90
2018-04-24T03:15:24.109Z,13.80
2018-04-24T03:17:53.139Z,13.80
2018-04-24T03:20:22.206Z,13.90
2018-04-24T03:22:51.231Z,13.90
2018-04-24T03:25:20.300Z,13.90
2018-04-24T03:27:49.317Z,13.90
2018-04-24T03:30:18.378Z,13.90
2018-04-24T03:32:47.429Z,13.90
2018-04-24T03:35:16.498Z,13.90
2018-04-24T03:37:45.540Z,14.00
2018-04-24T03:40:14.590Z,14.10
2018-04-24T03:42:43.630Z,14.10
2018-04-24T03:45:13.487Z,14.10
2018-04-24T03:47:42.510Z,14.10
2018-04-24T03:50:11.554Z,14.20
2018-04-24T03:52:40.600Z,14.20
2018-04-24T03:55:09.714Z,14.20
2018-04-24T03:57:39.498Z,14.20
2018-04-24T04:00:08.571Z,14.20
2018-04-24T04:02:37.620Z,14.20
2018-04-24T04:05:07.496Z,14.30
2018-04-24T04:07:36.559Z,14.30
2018-04-24T04:10:05.618Z,14.40
2018-04-24T04:12:35.227Z,14.40
2018-04-24T04:15:06.411Z,14.40
2018-04-24T04:17:54.746Z,14.40
2018-04-24T04:20:41.839Z,14.30
2018-04-24T04:23:29.174Z,14.30
2018-04-24T04:25:58.233Z,14.20
2018-04-24T04:28:27.308Z,14.10
2018-04-24T04:30:57.276Z,14.10
2018-04-24T04:33:26.301Z,14.00
2018-04-24T04:35:55.501Z,14.00
2018-04-24T04:38:24.526Z,13.90
2018-04-24T04:40:54.325Z,14.00
2018-04-24T04:43:23.866Z,13.90
2018-04-24T04:45:52.897Z,14.00
2018-04-24T04:48:22.000Z,14.10
2018-04-24T04:50:51.053Z,14.00
2018-04-24T04:53:20.091Z,14.10
2018-04-24T04:55:49.966Z,14.20
2018-04-24T04:58:19.017Z,14.10
2018-04-24T05:00:48.054Z,14.10
2018-04-24T05:03:17.234Z,14.20
2018-04-24T05:05:46.726Z,14.20
2018-04-24T05:08:15.771Z,14.30
2018-04-24T05:10:44.811Z,14.20
2018-04-24T05:13:14.636Z,14.30
2018-04-24T05:15:43.670Z,14.20
2018-04-24T05:18:12.735Z,14.30
2018-04-24T05:20:41.769Z,14.30
2018-04-24T05:23:10.810Z,14.50
2018-04-24T05:25:39.858Z,14.60
2018-04-24T05:28:08.909Z,14.80
2018-04-24T05:30:38.001Z,14.80
2018-04-24T05:33:07.071Z,14.80
2018-04-24T05:35:36.860Z,14.80
2018-04-24T05:38:05.939Z,14.80
2018-04-24T05:40:35.004Z,15.00
2018-04-24T05:43:04.102Z,15.10
2018-04-24T05:45:33.146Z,15.20
2018-04-24T05:48:02.979Z,15.20
2018-04-24T05:50:32.075Z,15.20
2018-04-24T05:53:01.131Z,15.30
2018-04-24T05:55:30.162Z,15.40
2018-04-24T05:57:59.987Z,15.40
2018-04-24T06:00:29.020Z,15.40
2018-04-24T06:02:58.129Z,15.70
2018-04-24T06:05:27.251Z,15.80
2018-04-24T06:07:56.359Z,16.00
2018-04-24T06:10:26.167Z,16.20
2018-04-24T06:12:55.233Z,16.10
2018-04-24T06:15:24.337Z,16.40
2018-04-24T06:17:54.151Z,16.50
2018-04-24T06:20:23.255Z,16.40
2018-04-24T06:22:52.330Z,16.70
2018-04-24T06:25:21.421Z,16.90
2018-04-24T06:27:50.446Z,17.00
2018-04-24T06:30:20.233Z,17.00
2018-04-24T06:32:49.309Z,17.00
2018-04-24T06:35:18.383Z,17.10
2018-04-24T06:37:47.431Z,17.10
2018-04-24T06:40:17.267Z,17.30
2018-04-24T06:42:46.288Z,17.30
2018-04-24T06:45:15.359Z,17.40
2018-04-24T06:47:44.502Z,17.50
2018-04-24T06:50:14.238Z,17.70
2018-04-24T06:52:43.291Z,17.60
2018-04-24T06:55:12.352Z,18.00
2018-04-24T06:57:41.389Z,18.20
2018-04-24T07:00:10.438Z,18.20
2018-04-24T07:02:39.533Z,18.30
2018-04-24T07:05:08.580Z,18.40
2018-04-24T07:07:37.676Z,18.50
2018-04-24T07:10:06.771Z,18.60
2018-04-24T07:12:35.868Z,18.30
2018-04-24T07:15:04.961Z,18.10
2018-04-24T07:17:34.055Z,17.80
2018-04-24T07:20:03.097Z,17.80
2018-04-24T07:22:32.163Z,17.80
2018-04-24T07:25:01.967Z,17.90
2018-04-24T07:27:31.062Z,17.80
2018-04-24T07:30:00.136Z,18.10
2018-04-24T07:32:29.246Z,18.20
2018-04-24T07:34:58.296Z,18.10
2018-04-24T07:37:27.378Z,18.10
2018-04-24T07:39:56.436Z,17.90
2018-04-24T07:42:25.520Z,17.90
2018-04-24T07:44:54.571Z,17.90
2018-04-24T07:47:23.599Z,18.00
2018-04-24T07:49:52.668Z,18.00
2018-04-24T07:52:21.721Z,18.20
2018-04-24T07:54:51.513Z,18.60
2018-04-24T07:57:20.679Z,18.50
2018-04-24T07:59:49.741Z,18.70
2018-04-24T08:02:18.779Z,19.10
2018-04-24T08:04:47.854Z,19.50
2018-04-24T08:07:16.931Z,20.00
2018-04-24T08:09:46.015Z,20.40
2018-04-24T08:12:15.069Z,20.70
2018-04-24T08:14:44.139Z,20.90
2018-04-24T08:17:13.186Z,21.10
2018-04-24T08:19:42.263Z,21.10
2018-04-24T08:22:11.292Z,21.10
2018-04-24T08:24:40.372Z,21.10
2018-04-24T08:27:09.470Z,20.90
2018-04-24T08:29:38.585Z,20.60
2018-04-24T08:32:07.639Z,20.20
2018-04-24T08:34:36.799Z,19.80
2018-04-24T08:37:05.837Z,19.60
2018-04-24T08:39:34.905Z,19.80
2018-04-24T08:42:04.002Z,19.90
2018-04-24T08:44:33.078Z,20.10
2018-04-24T08:47:02.132Z,20.00
2018-04-24T08:49:31.181Z,19.90
2018-04-24T08:52:00.246Z,20.00
2018-04-24T08:54:29.283Z,20.40
2018-04-24T08:56:58.350Z,20.80
2018-04-24T08:59:27.381Z,21.20
2018-04-24T09:01:56.498Z,21.50
2018-04-24T09:04:25.877Z,21.60
2018-04-24T09:06:54.952Z,21.40
2018-04-24T09:09:26.053Z,21.30
2018-04-24T09:11:55.141Z,21.10
2018-04-24T09:14:24.185Z,21.20
2018-04-24T09:16:53.252Z,21.50
2018-04-24T09:19:22.290Z,21.80
2018-04-24T09:21:51.355Z,22.30
2018-04-24T09:24:20.378Z,22.50
2018-04-24T09:26:49.451Z,22.70
2018-04-24T09:29:18.496Z,22.70
2018-04-24T09:31:48.322Z,22.60
2018-04-24T09:34:17.375Z,22.50
2018-04-24T09:36:46.446Z,22.70
2018-04-24T09:39:15.474Z,22.80
2018-04-24T09:41:45.309Z,23.20
2018-04-24T09:44:14.358Z,23.20
2018-04-24T09:46:43.447Z,23.20
2018-04-24T09:49:12.527Z,23.10
2018-04-24T09:51:41.608Z,23.00
2018-04-24T09:54:10.676Z,22.80
2018-04-24T09:56:40.513Z,22.80
2018-04-24T09:59:09.599Z,22.80
2018-04-24T10:01:38.651Z,22.80
2018-04-24T10:04:07.701Z,22.70
2018-04-24T10:06:36.820Z,22.70
2018-04-24T10:09:06.677Z,22.90
2018-04-24T10:11:36.583Z,23.20
2018-04-24T10:14:06.387Z,23.40
2018-04-24T10:16:35.440Z,23.30
2018-04-24T10:19:04.539Z,22.80
2018-04-24T10:21:33.591Z,22.70
2018-04-24T10:24:02.659Z,22.90
2018-04-24T10:26:31.763Z,23.30
2018-04-24T10:29:00.817Z,23.20
2018-04-24T10:31:29.849Z,23.10
2018-04-24T10:33:59.017Z,22.70
2018-04-24T10:36:28.101Z,22.70
2018-04-24T10:38:57.243Z,22.80
2018-04-24T10:41:26.289Z,23.10
2018-04-24T10:43:55.381Z,23.30
2018-04-24T10:46:24.423Z,23.20
2018-04-24T10:48:53.562Z,23.00
2018-04-24T10:51:22.622Z,23.00
2018-04-24T10:53:51.754Z,23.00
2018-04-24T10:56:20.831Z,23.20
2018-04-24T10:58:49.881Z,23.40
2018-04-24T11:01:18.975Z,23.70
2018-04-24T11:03:48.071Z,23.60
2018-04-24T11:06:17.242Z,23.50
2018-04-24T11:08:46.289Z,23.60
2018-04-24T11:11:15.339Z,23.60
2018-04-24T11:13:44.434Z,23.70
2018-04-24T11:16:13.696Z,23.80
2018-04-24T11:18:43.551Z,24.30
2018-04-24T11:21:12.594Z,24.30
2018-04-24T11:23:41.664Z,24.00
2018-04-24T11:26:10.924Z,24.20
2018-04-24T11:28:39.962Z,24.60
2018-04-24T11:31:09.056Z,24.50
2018-04-24T11:33:38.522Z,24.70
2018-04-24T11:36:07.896Z,24.70
2018-04-24T11:38:37.015Z,24.50
2018-04-24T11:41:06.205Z,24.00
2018-04-24T11:43:35.238Z,23.40
2018-04-24T11:46:04.270Z,23.20
2018-04-24T11:48:34.322Z,24.40
2018-04-24T11:51:03.364Z,24.20
2018-04-24T11:53:32.396Z,24.70
2018-04-24T11:56:02.007Z,24.30
2018-04-24T11:58:31.381Z,24.30
2018-04-24T12:01:00.796Z,24.40
2018-04-24T12:03:31.073Z,25.90
2018-04-24T12:06:00.267Z,25.80
2018-04-24T12:08:29.303Z,25.90
2018-04-24T12:10:58.382Z,25.80
2018-04-24T12:13:27.482Z,24.60
2018-04-24T12:15:56.591Z,24.10
2018-04-24T12:18:25.635Z,23.60
2018-04-24T12:20:55.199Z,23.40
2018-04-24T12:23:24.298Z,23.40
2018-04-24T12:25:53.323Z,23.60
2018-04-24T12:28:22.407Z,24.40
2018-04-24T12:30:51.440Z,25.20
2018-04-24T12:33:20.480Z,26.10
2018-04-24T12:35:49.558Z,26.70
2018-04-24T12:38:18.578Z,27.00
2018-04-24T12:40:47.678Z,27.10
2018-04-24T12:43:16.701Z,26.90
2018-04-24T12:45:45.762Z,26.70
2018-04-24T12:48:15.011Z,26.70
2018-04-24T12:50:44.050Z,27.00
2018-04-24T12:53:13.297Z,27.60
2018-04-24T12:55:42.371Z,27.90
2018-04-24T12:58:11.405Z,27.90
2018-04-24T13:00:41.243Z,27.70
2018-04-24T13:03:11.026Z,27.70
2018-04-24T13:05:40.134Z,27.60
2018-04-24T13:08:18.810Z,27.70
2018-04-24T13:10:49.736Z,27.40
2018-04-24T13:13:18.765Z,27.10
2018-04-24T13:15:47.794Z,27.00
2018-04-24T13:18:17.650Z,27.00
2018-04-24T13:20:46.682Z,26.90
2018-04-24T13:23:15.727Z,27.40
2018-04-24T13:25:44.872Z,27.70
2018-04-24T13:28:13.858Z,28.00
2018-04-24T13:30:42.900Z,28.00
2018-04-24T13:33:11.967Z,27.80
2018-04-24T13:35:41.022Z,27.80
2018-04-24T13:38:10.177Z,27.70
2018-04-24T13:40:40.037Z,27.60
2018-04-24T13:43:09.246Z,27.50
2018-04-24T13:45:38.969Z,27.00
2018-04-24T13:48:08.491Z,27.00
2018-04-24T13:50:37.525Z,27.00
2018-04-24T13:53:06.548Z,26.80
2018-04-24T13:55:35.639Z,26.20
2018-04-24T13:58:04.715Z,26.00
2018-04-24T14:00:33.755Z,25.60
2018-04-24T14:03:02.823Z,25.60
2018-04-24T14:05:31.927Z,25.90
2018-04-24T14:08:01.136Z,25.80
2018-04-24T14:10:30.163Z,25.70
2018-04-24T14:12:59.322Z,25.80
2018-04-24T14:15:28.350Z,26.40
2018-04-24T14:17:58.282Z,26.70
2018-04-24T14:20:27.303Z,26.60
2018-04-24T14:22:57.229Z,26.40
2018-04-24T14:25:26.986Z,26.50
2018-04-24T14:27:56.085Z,26.50
2018-04-24T14:30:25.145Z,26.40
2018-04-24T14:32:54.222Z,26.50
2018-04-24T14:35:23.250Z,26.60
2018-04-24T14:37:52.437Z,26.70
2018-04-24T14:40:21.502Z,26.90
2018-04-24T14:42:50.569Z,27.40
2018-04-24T14:45:19.610Z,27.50
2018-04-24T14:47:48.822Z,28.00
2018-04-24T14:50:18.633Z,28.30
2018-04-24T14:52:47.664Z,28.20
2018-04-24T14:55:16.713Z,28.30
2018-04-24T14:57:45.836Z,28.60
2018-04-24T15:00:15.808Z,28.20
2018-04-24T15:02:44.993Z,28.10
2018-04-24T15:05:14.060Z,28.10
2018-04-24T15:07:43.142Z,27.30
2018-04-24T15:10:13.052Z,26.90
2018-04-24T15:12:42.096Z,26.90
2018-04-24T15:15:11.166Z,27.10
2018-04-24T15:17:40.199Z,27.40
2018-04-24T15:20:10.399Z,27.70
2018-04-24T15:22:39.537Z,27.70
2018-04-24T15:25:08.595Z,27.80
2018-04-24T15:27:37.629Z,27.80
2018-04-24T15:30:06.690Z,27.50
2018-04-24T15:32:35.747Z,27.40
2018-04-24T15:35:04.847Z,27.40
2018-04-24T15:37:34.642Z,27.30
2018-04-24T15:40:03.746Z,27.20
2018-04-24T15:42:32.908Z,27.10
2018-04-24T15:45:02.995Z,27.40
2018-04-24T15:47:32.193Z,27.60
2018-04-24T15:50:01.279Z,27.50
2018-04-24T15:52:30.323Z,27.40
2018-04-24T15:54:59.496Z,27.30
2018-04-24T15:57:29.352Z,26.90
2018-04-24T15:59:59.142Z,27.00
2018-04-24T16:02:28.287Z,27.00
2018-04-24T16:04:57.643Z,27.00
2018-04-24T16:07:26.813Z,27.00
2018-04-24T16:09:56.282Z,27.00
2018-04-24T16:12:25.535Z,27.40
2018-04-24T16:14:54.888Z,27.30
2018-04-24T16:17:23.970Z,27.00
2018-04-24T16:19:53.063Z,26.90
2018-04-24T16:22:22.101Z,26.90
2018-04-24T16:24:51.701Z,27.20
2018-04-24T16:27:22.220Z,27.70
2018-04-24T16:29:51.304Z,27.70
2018-04-24T16:32:20.342Z,27.90
2018-04-24T16:34:49.394Z,27.90
2018-04-24T16:37:18.531Z,28.20
2018-04-24T16:39:47.650Z,28.30
2018-04-24T16:42:17.521Z,28.30
2018-04-24T16:44:46.900Z,28.20
2018-04-24T16:47:15.981Z,27.80
2018-04-24T16:49:45.047Z,27.30
2018-04-24T16:52:15.031Z,26.10
2018-04-24T16:54:44.178Z,26.00
2018-04-24T16:57:13.337Z,25.60
2018-04-24T16:59:42.669Z,25.20
2018-04-24T17:02:11.919Z,24.80
2018-04-24T17:04:41.074Z,24.50
2018-04-24T17:07:10.183Z,24.50
2018-04-24T17:09:39.322Z,24.50
2018-04-24T17:12:08.383Z,24.50
2018-04-24T17:14:37.455Z,24.50
2018-04-24T17:17:06.534Z,24.50
2018-04-24T17:19:36.301Z,24.50
2018-04-24T17:22:05.355Z,24.50
2018-04-24T17:24:34.420Z,24.40
2018-04-24T17:27:04.239Z,24.00
2018-04-24T17:29:33.434Z,23.90
2018-04-24T17:32:03.190Z,23.70
2018-04-24T17:34:32.209Z,23.40
2018-04-24T17:37:01.327Z,23.20
2018-04-24T17:39:30.833Z,22.90
2018-04-24T17:41:59.870Z,22.70
2018-04-24T17:44:29.836Z,22.50
2018-04-24T17:46:59.005Z,22.40
2018-04-24T17:49:28.052Z,22.10
2018-04-24T17:51:57.117Z,21.90
2018-04-24T17:54:26.137Z,21.70
2018-04-24T17:56:56.210Z,21.20
2018-04-24T17:59:25.229Z,21.10
2018-04-24T18:01:54.268Z,21.00
2018-04-24T18:04:23.337Z,20.70
2018-04-24T18:06:52.388Z,20.40
2018-04-24T18:09:21.457Z,20.20
2018-04-24T18:11:50.515Z,19.90
2018-04-24T18:14:20.347Z,19.50
2018-04-24T18:16:49.388Z,19.40
2018-04-24T18:19:18.462Z,19.20
2018-04-24T18:21:47.501Z,19.00
2018-04-24T18:24:16.565Z,18.80
2018-04-24T18:26:45.594Z,18.60
2018-04-24T18:29:14.667Z,18.50
2018-04-24T18:31:43.696Z,18.50
2018-04-24T18:34:13.546Z,18.30
2018-04-24T18:36:42.596Z,18.20
2018-04-24T18:39:11.659Z,18.20
2018-04-24T18:41:40.711Z,18.10
2018-04-24T18:44:09.832Z,17.90
2018-04-24T18:46:38.849Z,17.80
2018-04-24T18:49:07.881Z,17.70
2018-04-24T18:51:37.635Z,17.60
2018-04-24T18:54:06.708Z,17.70
2018-04-24T18:56:35.738Z,17.60
2018-04-24T18:59:04.798Z,17.50
2018-04-24T19:01:33.830Z,17.50
2018-04-24T19:04:02.873Z,17.40
2018-04-24T19:06:31.909Z,17.30
2018-04-24T19:09:00.998Z,17.20
2018-04-24T19:11:30.029Z,17.10
2018-04-24T19:14:05.486Z,17.00
2018-04-24T19:16:34.535Z,16.90
2018-04-24T19:19:09.348Z,16.90
2018-04-24T19:21:38.390Z,16.90
2018-04-24T19:24:07.504Z,16.70
2018-04-24T19:26:36.583Z,16.60
2018-04-24T19:29:05.618Z,16.50
2018-04-24T19:31:40.177Z,16.40
2018-04-24T19:34:09.966Z,16.20
2018-04-24T19:36:39.038Z,16.10
2018-04-24T19:39:13.653Z,16.20
2018-04-24T19:41:48.171Z,16.20
2018-04-24T19:44:17.196Z,16.10
2018-04-24T19:46:46.215Z,15.90
2018-04-24T19:49:21.709Z,15.90
2018-04-24T19:51:51.374Z,15.80
2018-04-24T19:54:21.017Z,15.80
2018-04-24T19:56:50.565Z,15.70
2018-04-24T19:59:20.128Z,15.50
2018-04-24T20:01:49.670Z,15.50
2018-04-24T20:04:19.727Z,15.40
2018-04-24T20:06:50.021Z,15.30
2018-04-24T20:09:19.538Z,15.20
2018-04-24T20:11:49.050Z,15.30
2018-04-24T20:14:18.198Z,15.20
2018-04-24T20:16:47.256Z,15.20
2018-04-24T20:19:17.205Z,15.10
2018-04-24T20:21:46.267Z,15.00
2018-04-24T20:24:15.302Z,15.00
2018-04-24T20:26:44.375Z,15.00
2018-04-24T20:29:13.413Z,15.00
2018-04-24T20:31:42.462Z,14.90
2018-04-24T20:34:11.496Z,14.80
2018-04-24T20:36:40.566Z,14.80
2018-04-24T20:39:09.598Z,14.70
2018-04-24T20:41:38.650Z,14.70
2018-04-24T20:44:07.673Z,14.60
2018-04-24T20:46:36.780Z,14.40
2018-04-24T20:49:06.596Z,14.40
2018-04-24T20:51:35.611Z,14.30
2018-04-24T20:54:04.675Z,14.40
2018-04-24T20:56:34.461Z,14.20
2018-04-24T20:59:03.519Z,14.10
2018-04-24T21:01:32.550Z,14.10
2018-04-24T21:04:01.978Z,14.10
2018-04-24T21:06:30.998Z,14.10
2018-04-24T21:09:00.429Z,14.20
2018-04-24T21:11:29.623Z,14.10
2018-04-24T21:13:58.688Z,14.10
2018-04-24T21:16:27.801Z,14.10
2018-04-24T21:18:56.865Z,14.00
2018-04-24T21:21:25.911Z,13.90
2018-04-24T21:23:55.070Z,13.90
2018-04-24T21:26:24.178Z,13.90
2018-04-24T21:28:53.247Z,13.90
2018-04-24T21:31:22.312Z,13.80
2018-04-24T21:33:51.411Z,13.80
2018-04-24T21:36:20.482Z,13.80
2018-04-24T21:38:49.994Z,13.60
2018-04-24T21:41:19.529Z,13.60
2018-04-24T21:43:49.023Z,13.60
2018-04-24T21:46:18.103Z,13.60
2018-04-24T21:48:47.319Z,13.60
2018-04-24T21:51:16.481Z,13.60
2018-04-24T21:53:45.909Z,13.50
2018-04-24T21:56:15.042Z,13.50
2018-04-24T21:58:44.346Z,13.60
2018-04-24T22:01:13.555Z,13.50
2018-04-24T22:03:42.822Z,13.50
2018-04-24T22:06:11.944Z,13.50
2018-04-24T22:08:41.043Z,13.50
2018-04-24T22:11:10.080Z,13.30
2018-04-24T22:13:39.106Z,13.20
2018-04-24T22:16:08.216Z,13.10
2018-04-24T22:18:37.251Z,13.00
2018-04-24T22:21:06.377Z,12.80
2018-04-24T22:23:35.418Z,12.80
2018-04-24T22:26:04.465Z,12.80
2018-04-24T22:28:33.580Z,12.80
2018-04-24T22:31:02.883Z,12.70
2018-04-24T22:33:32.033Z,12.70
2018-04-24T22:36:01.124Z,12.70
2018-04-24T22:38:30.199Z,12.70
2018-04-24T22:40:59.273Z,12.70
2018-04-24T22:43:28.321Z,12.70
2018-04-24T22:45:58.113Z,12.60
2018-04-24T22:48:27.205Z,12.50
2018-04-24T22:50:56.234Z,12.60
2018-04-24T22:53:26.021Z,12.50
2018-04-24T22:55:55.090Z,12.40
2018-04-24T22:58:24.111Z,12.50
2018-04-24T23:00:53.934Z,12.50
2018-04-24T23:03:22.967Z,12.40
2018-04-24T23:05:52.041Z,12.50
2018-04-24T23:08:21.106Z,12.50
2018-04-24T23:11:08.650Z,12.40
2018-04-24T23:13:55.513Z,12.40
2018-04-24T23:16:42.348Z,12.50
2018-04-24T23:19:29.216Z,12.50
2018-04-24T23:21:57.503Z,12.40
2018-04-24T23:24:26.551Z,12.30
2018-04-24T23:26:55.623Z,12.30
2018-04-24T23:29:24.659Z,12.20
2018-04-24T23:31:53.732Z,12.30
2018-04-24T23:34:22.767Z,12.30
2018-04-24T23:36:51.826Z,12.20
2018-04-24T23:39:20.853Z,12.20
2018-04-24T23:41:49.923Z,12.20
2018-04-24T23:44:18.975Z,12.20
2018-04-24T23:46:48.034Z,12.10
2018-04-24T23:49:17.085Z,12.10
2018-04-24T23:51:46.127Z,12.10
2018-04-24T23:54:15.198Z,12.10
2018-04-24T23:56:44.255Z,12.10
2018-04-24T23:59:13.292Z,12.10
